Milford on Sea, United Kingdom
Current Conditions -  °F | °C
As of 10:50 AM on Sunday 23 Nov 2014 (Local Time) from EGHH Reporting Station
Light Rain Light Rain  
Wind Chill: 42°   Ceiling: 4900
Heat Index: 46°   Visibility: 6mi
Dew Point: 46°   Wind: 9mph
Humidity: 100%   Direction: 10°N
Pressure: 30.03"   Gusts: NA
Location:  50.73°N, 1.59°W
Report Text: EGHH 231050Z 01008KT 300V040 9999 -RA FEW010 SCT039 BKN049 08/08 Q1017 RERA
Loading
Personal Weather Stations






























Interactive Weather Map New forecast layout! Learn more

10-Day Weather Forecast

Advertisements
Track Severe Weather on mobile